createdAt,value
2022-10-29T00:01:14.533Z,99400.27
2022-10-29T00:11:41.804Z,99397.48
2022-10-29T00:22:09.394Z,99393.65
2022-10-29T00:32:36.845Z,99394.52
2022-10-29T00:43:16.879Z,99395.39
2022-10-29T00:53:48.452Z,99387.91
2022-10-29T01:04:16.275Z,99392.11
2022-10-29T01:14:57.611Z,99370.34
2022-10-29T01:25:50.978Z,99368.62
2022-10-29T01:36:26.560Z,99374.02
2022-10-29T01:46:59.177Z,99360.80
2022-10-29T01:57:31.495Z,99358.70
2022-10-29T02:08:03.688Z,99347.75
2022-10-29T02:18:31.220Z,99343.41
2022-10-29T02:28:59.167Z,99344.48
2022-10-29T02:39:26.484Z,99336.48
2022-10-29T02:49:53.823Z,99329.00
2022-10-29T03:00:21.594Z,99334.40
2022-10-29T03:10:49.180Z,99326.02
2022-10-29T03:21:16.517Z,99322.38
2022-10-29T03:31:44.107Z,99316.44
2022-10-29T03:42:11.406Z,99319.75
2022-10-29T03:52:38.718Z,99322.69
2022-10-29T04:03:06.123Z,99331.56
2022-10-29T04:13:33.572Z,99330.15
2022-10-29T04:34:48.185Z,99328.00
2022-10-29T04:45:15.753Z,99333.74
2022-10-29T04:55:43.284Z,99312.63
2022-10-29T05:06:10.828Z,99267.20
2022-10-29T05:16:38.191Z,99319.77
2022-10-29T05:27:08.367Z,99334.20
2022-10-29T05:37:35.943Z,99342.41
2022-10-29T05:48:05.306Z,99333.00
2022-10-29T05:58:32.841Z,99323.94
2022-10-29T06:09:00.165Z,99326.90
2022-10-29T06:19:27.618Z,99330.35
2022-10-29T06:29:54.978Z,99336.58
2022-10-29T06:40:22.477Z,99350.61
2022-10-29T06:50:49.806Z,99358.33
2022-10-29T07:01:17.406Z,99362.41
2022-10-29T07:11:44.752Z,99371.59
2022-10-29T07:22:12.532Z,99393.52
2022-10-29T07:32:39.951Z,99412.49
2022-10-29T07:43:07.454Z,99412.44
2022-10-29T07:53:34.940Z,99415.30
2022-10-29T08:04:02.263Z,99421.45
2022-10-29T08:14:29.809Z,99433.23
2022-10-29T08:24:57.160Z,99436.29
2022-10-29T08:35:24.828Z,99443.02
2022-10-29T08:45:54.843Z,99442.79
2022-10-29T08:56:27.150Z,99434.38
2022-10-29T09:07:10.808Z,99423.66
2022-10-29T09:17:44.072Z,99434.81
2022-10-29T09:28:25.201Z,99426.21
2022-10-29T09:38:58.396Z,99425.00
2022-10-29T09:49:36.684Z,99433.10
2022-10-29T10:00:06.823Z,99414.92
2022-10-29T10:10:35.001Z,99395.83
2022-10-29T10:21:09.755Z,99391.13
2022-10-29T10:31:37.101Z,99374.30
2022-10-29T10:42:07.137Z,99374.56
2022-10-29T10:52:35.272Z,99361.71
2022-10-29T11:03:10.622Z,99351.34
2022-10-29T11:13:40.711Z,99340.02
2022-10-29T11:24:13.342Z,99336.67
2022-10-29T11:34:46.931Z,99330.55
2022-10-29T11:45:19.473Z,99331.89
2022-10-29T11:55:58.008Z,99331.10
2022-10-29T12:06:32.936Z,99324.84
2022-10-29T12:17:10.442Z,99312.02
2022-10-29T12:27:45.796Z,99306.92
2022-10-29T12:38:25.847Z,99296.91
2022-10-29T12:49:11.617Z,99293.54
2022-10-29T12:59:39.698Z,99289.93
2022-10-29T13:10:42.032Z,99289.36
2022-10-29T13:21:09.825Z,99279.62
2022-10-29T13:31:47.638Z,99291.23
2022-10-29T13:42:15.826Z,99294.61
2022-10-29T13:52:45.969Z,99285.92
2022-10-29T14:03:23.148Z,99279.29
2022-10-29T14:13:52.486Z,99272.70
2022-10-29T14:24:19.960Z,99277.11
2022-10-29T14:34:49.452Z,99275.36
2022-10-29T14:45:24.071Z,99284.41
2022-10-29T14:55:52.296Z,99280.56
2022-10-29T15:06:22.007Z,99283.33
2022-10-29T15:16:50.345Z,99293.45
2022-10-29T15:27:17.892Z,99292.64
2022-10-29T15:37:46.809Z,99284.48
2022-10-29T15:48:36.546Z,99272.24
2022-10-29T15:59:03.993Z,99265.23
2022-10-29T16:09:31.327Z,99261.73
2022-10-29T16:19:58.663Z,99272.61
2022-10-29T16:30:26.491Z,99275.37
2022-10-29T16:40:53.912Z,99278.91
2022-10-29T16:51:21.334Z,99282.48
2022-10-29T17:01:49.865Z,99283.52
2022-10-29T17:12:17.499Z,99278.70
2022-10-29T17:22:44.885Z,99267.77
2022-10-29T17:33:13.077Z,99264.45
2022-10-29T17:43:40.576Z,99271.28
2022-10-29T17:54:08.305Z,99281.13
2022-10-29T18:04:35.856Z,99278.23
2022-10-29T18:15:03.462Z,99277.80
2022-10-29T18:25:30.834Z,99282.40
2022-10-29T18:35:59.020Z,99283.30
2022-10-29T18:46:24.800Z,99272.55
2022-10-29T18:56:52.077Z,99262.66
2022-10-29T19:07:19.477Z,99273.50
2022-10-29T19:17:47.146Z,99273.31
2022-10-29T19:28:14.474Z,99261.89
2022-10-29T19:38:41.866Z,99262.70
2022-10-29T19:49:09.400Z,99263.29
2022-10-29T19:59:37.193Z,99267.16
2022-10-29T20:10:05.390Z,99268.20
2022-10-29T20:20:32.726Z,99262.41
2022-10-29T20:31:29.767Z,99274.98
2022-10-29T20:41:57.977Z,99266.81
2022-10-29T20:52:25.398Z,99275.02
2022-10-29T21:02:52.622Z,99269.09
2022-10-29T21:13:19.988Z,99269.13
2022-10-29T21:23:47.509Z,99249.04
2022-10-29T21:34:14.800Z,99255.23
2022-10-29T21:44:42.097Z,99255.23
2022-10-29T21:55:10.309Z,99222.25
2022-10-29T22:05:37.603Z,99202.81
2022-10-29T22:16:06.203Z,99214.14
2022-10-29T22:26:35.011Z,99214.30
2022-10-29T22:37:02.360Z,99215.78
2022-10-29T22:47:29.617Z,99197.98
2022-10-29T22:57:58.320Z,99197.88
2022-10-29T23:08:25.631Z,99204.34
2022-10-29T23:18:54.048Z,99199.80
2022-10-29T23:29:21.388Z,99196.87
2022-10-29T23:39:48.636Z,99178.95
2022-10-29T23:50:15.985Z,99169.54
